Time;durP1;ratioP1;P1;durP2;ratioP2;P2;SDS_P1;SDS_P2;PMS_P1;PMS_P2;Temp;Humidity;BMP_temperature;BMP_pressure;BME280_temperature;BME280_humidity;BME280_pressure;Samples;Min_cycle;Max_cycle;Signal;HPM_P1;HPM_P2
2024/02/15 00:00:53;;;;;;;19.38;12.25;;;11.00;99.90;;;15.19;100.00;100823.25;5027206;28;20115;-79
2024/02/15 00:03:19;;;;;;;19.15;12.95;;;11.00;99.90;;;14.96;100.00;100816.72;5030983;28;20405;-79
2024/02/15 00:05:46;;;;;;;21.63;13.88;;;11.00;99.90;;;15.31;100.00;100826.78;5031101;28;20052;-80
2024/02/15 00:08:12;;;;;;;23.48;14.57;;;11.00;99.90;;;15.08;100.00;100827.69;5030872;28;20034;-79
2024/02/15 00:10:38;;;;;;;26.77;15.27;;;11.10;99.90;;;15.07;100.00;100815.84;5031178;28;20648;-78
2024/02/15 00:13:06;;;;;;;23.38;15.95;;;11.00;99.90;;;15.15;100.00;100819.31;5030738;28;20049;-78
2024/02/15 00:15:34;;;;;;;;;;;11.10;99.90;;;15.27;100.00;100817.34;5046509;28;20408;-79
2024/02/15 00:18:00;;;;;;;25.77;16.23;;;11.10;99.90;;;15.01;100.00;100816.00;5030742;28;19921;-79
2024/02/15 00:20:25;;;;;;;22.85;15.35;;;11.10;99.90;;;15.18;100.00;100821.56;5030358;28;20580;-78
2024/02/15 00:22:52;;;;;;;24.83;16.08;;;11.20;99.90;;;15.15;100.00;100817.38;5030535;28;20072;-77
2024/02/15 00:25:19;;;;;;;25.13;17.20;;;11.20;99.90;;;15.23;100.00;100817.00;5030697;28;20038;-77
2024/02/15 00:27:45;;;;;;;25.40;16.42;;;11.20;99.90;;;15.32;100.00;100820.19;5030823;28;20041;-78
2024/02/15 00:30:12;;;;;;;23.77;16.45;;;11.30;99.90;;;15.34;100.00;100822.72;5030991;28;20044;-78
2024/02/15 00:32:38;;;;;;;26.73;16.33;;;11.30;99.90;;;15.40;100.00;100821.72;5029720;28;20550;-80
2024/02/15 00:35:09;;;;;;;25.35;15.98;;;11.30;99.90;;;15.43;100.00;100823.16;5030712;28;20041;-78
2024/02/15 00:37:37;;;;;;;22.10;15.65;;;11.30;99.90;;;15.46;100.00;100817.16;5029347;28;20041;-78
2024/02/15 00:40:04;;;;;;;23.73;16.05;;;11.30;99.90;;;15.53;100.00;100815.09;5030782;28;20030;-80
2024/02/15 00:42:32;;;;;;;26.35;16.10;;;11.40;99.90;;;15.48;100.00;100823.25;5030462;28;20454;-80
2024/02/15 00:44:59;;;;;;;24.05;14.88;;;11.40;99.90;;;15.50;100.00;100823.84;5029785;28;20033;-80
2024/02/15 00:47:24;;;;;;;21.13;15.38;;;11.50;99.90;;;15.49;100.00;100827.66;5030421;28;20029;-79
2024/02/15 00:49:50;;;;;;;19.55;14.30;;;11.50;99.90;;;15.48;100.00;100815.00;5025833;28;20616;-80
2024/02/15 00:52:19;;;;;;;23.80;14.60;;;11.50;99.90;;;15.49;100.00;100828.50;5028575;28;20079;-79
2024/02/15 00:54:46;;;;;;;22.70;14.65;;;11.50;99.90;;;15.33;100.00;100823.78;5029561;28;20472;-79
2024/02/15 00:57:12;;;;;;;20.42;14.63;;;11.60;99.90;;;15.34;100.00;100831.78;5012526;28;20071;-79
2024/02/15 00:59:37;;;;;;;19.95;13.75;;;11.60;99.90;;;15.49;100.00;100838.66;5030536;28;20042;-79
2024/02/15 01:02:05;;;;;;;20.02;14.02;;;11.60;99.90;;;15.31;100.00;100831.44;5024805;28;20045;-79
2024/02/15 01:04:31;;;;;;;17.95;13.25;;;11.60;99.90;;;15.54;100.00;100836.00;5028161;28;20097;-78
2024/02/15 01:06:56;;;;;;;18.65;12.73;;;11.60;99.90;;;15.56;100.00;100838.53;5029526;28;20056;-78
2024/02/15 01:09:22;;;;;;;18.92;13.40;;;11.60;99.90;;;15.25;100.00;100841.50;5030130;28;20049;-80
2024/02/15 01:11:48;;;;;;;17.20;12.60;;;11.70;99.90;;;15.42;100.00;100840.75;5030401;28;20476;-79
2024/02/15 01:14:15;;;;;;;17.95;12.75;;;11.70;99.90;;;15.25;100.00;100844.25;5030311;28;20397;-80
2024/02/15 01:16:43;;;;;;;17.55;12.57;;;11.70;99.90;;;15.53;100.00;100843.44;5028376;28;20391;-79
2024/02/15 01:19:09;;;;;;;;;;;11.70;99.90;;;15.84;100.00;100848.66;5029836;28;20041;-79
2024/02/15 01:21:34;;;;;;;18.38;11.73;;;11.70;99.90;;;15.60;100.00;100842.44;5029778;28;19928;-79
2024/02/15 01:24:00;;;;;;;16.35;11.57;;;11.70;99.90;;;15.55;100.00;100842.38;5029474;28;20033;-79
2024/02/15 01:26:27;;;;;;;17.52;12.80;;;11.70;99.90;;;15.62;100.00;100843.03;5029782;28;20045;-80
2024/02/15 01:28:53;;;;;;;17.95;12.05;;;11.70;99.90;;;15.51;100.00;100848.31;5029742;28;20128;-79
2024/02/15 01:31:18;;;;;;;19.80;13.10;;;11.60;99.90;;;15.28;100.00;100827.25;5030167;28;20105;-80
2024/02/15 01:33:45;;;;;;;19.67;14.10;;;11.60;99.90;;;15.66;100.00;100835.97;5033411;28;20072;-80
2024/02/15 01:36:15;;;;;;;18.67;13.27;;;11.60;99.90;;;15.71;100.00;100829.72;5035771;28;20029;-80
2024/02/15 01:38:42;;;;;;;19.45;12.77;;;11.60;99.90;;;15.56;100.00;100833.84;5013669;28;20041;-79
2024/02/15 01:41:08;;;;;;;17.98;13.30;;;11.50;99.90;;;15.58;100.00;100834.44;5035283;28;20091;-81
2024/02/15 01:43:35;;;;;;;17.40;12.95;;;11.50;99.90;;;15.53;100.00;100834.34;5012578;28;20087;-80
2024/02/15 01:46:08;;;;;;;19.40;12.50;;;11.50;99.90;;;15.45;100.00;100832.00;5036632;28;20033;-80
2024/02/15 01:48:36;;;;;;;17.40;11.77;;;11.50;99.90;;;15.24;100.00;100828.84;5036070;28;20332;-79
2024/02/15 01:51:03;;;;;;;15.70;11.65;;;11.50;99.90;;;15.32;100.00;100827.63;5034244;28;20041;-80
2024/02/15 01:53:30;;;;;;;16.75;12.07;;;11.50;99.90;;;15.23;100.00;100832.66;5036251;28;20234;-80
2024/02/15 01:55:57;;;;;;;17.05;10.75;;;11.50;99.90;;;15.37;100.00;100819.47;5033975;28;20084;-81
2024/02/15 01:58:26;;;;;;;16.08;11.30;;;11.50;99.90;;;15.43;100.00;100828.66;5035245;28;20044;-79
2024/02/15 02:00:53;;;;;;;15.52;11.27;;;11.50;99.90;;;15.36;100.00;100824.13;4986905;28;20037;-78
2024/02/15 02:03:21;;;;;;;14.75;10.55;;;11.50;99.90;;;15.77;100.00;100820.47;5036138;28;20107;-80
2024/02/15 02:05:47;;;;;;;13.15;9.80;;;11.60;99.90;;;15.53;100.00;100815.94;5035081;28;20042;-80
2024/02/15 02:08:13;;;;;;;16.35;10.35;;;11.60;99.90;;;15.68;100.00;100820.03;5035783;28;20069;-80
2024/02/15 02:10:40;;;;;;;13.85;9.57;;;11.60;99.90;;;15.46;100.00;100815.25;5017950;28;20041;-79
2024/02/15 02:13:05;;;;;;;11.68;8.75;;;11.60;99.90;;;15.54;100.00;100814.00;5035923;28;20029;-81
2024/02/15 02:15:32;;;;;;;13.18;9.63;;;11.60;99.90;;;15.52;100.00;100816.19;5035583;28;20451;-81
2024/02/15 02:18:00;;;;;;;13.43;10.07;;;11.60;99.90;;;16.04;100.00;100820.69;5030040;28;20029;-81
2024/02/15 02:20:26;;;;;;;12.52;9.43;;;11.60;99.90;;;15.68;100.00;100814.53;5036246;28;20030;-80
2024/02/15 02:22:57;;;;;;;13.73;9.48;;;11.60;99.90;;;15.57;100.00;100818.19;5035876;28;20038;-81
2024/02/15 02:25:26;;;;;;;13.70;9.38;;;11.60;99.90;;;15.64;100.00;100822.44;5035230;28;20029;-81
2024/02/15 02:27:52;;;;;;;16.83;9.07;;;11.60;99.90;;;15.61;100.00;100814.69;5035470;28;20049;-80
2024/02/15 02:30:18;;;;;;;12.27;8.73;;;11.60;99.90;;;15.50;100.00;100807.34;5035148;28;20048;-81
2024/02/15 02:32:48;;;;;;;13.48;9.32;;;11.60;99.90;;;15.47;100.00;100810.59;5035443;28;20073;-82
2024/02/15 02:35:15;;;;;;;14.98;8.95;;;11.60;99.90;;;15.39;100.00;100811.81;4992601;28;20037;-81
2024/02/15 02:37:42;;;;;;;12.18;9.10;;;11.60;99.90;;;15.44;100.00;100811.91;5035112;28;20041;-81
2024/02/15 02:40:09;;;;;;;13.07;8.82;;;11.60;99.90;;;15.67;100.00;100812.88;5035974;28;20033;-82
2024/02/15 02:43:01;;;;;;;13.73;9.00;;;11.60;99.90;;;15.75;100.00;100822.66;5034927;28;20385;-81
2024/02/15 02:45:27;;;;;;;11.10;7.93;;;11.60;99.90;;;15.95;100.00;100830.44;5030619;28;20297;-81
2024/02/15 02:47:54;;;;;;;12.13;7.65;;;11.60;99.90;;;15.43;100.00;100826.72;5031764;28;20477;-81
2024/02/15 02:50:21;;;;;;;11.82;8.13;;;11.60;99.90;;;15.43;100.00;100823.97;5027255;28;20051;-81
2024/02/15 02:52:48;;;;;;;11.73;7.10;;;11.60;99.90;;;15.57;100.00;100815.44;5032056;28;20034;-81
2024/02/15 02:55:15;;;;;;;10.65;7.30;;;11.50;99.90;;;15.74;100.00;100820.97;5010323;28;20029;-81
2024/02/15 02:57:42;;;;;;;10.60;7.63;;;11.50;99.90;;;15.46;100.00;100823.47;5032156;28;20029;-79
2024/02/15 03:00:16;;;;;;;10.70;7.33;;;11.50;99.90;;;15.47;100.00;100818.84;5007652;28;20034;-81
2024/02/15 03:02:46;;;;;;;10.35;7.45;;;11.50;99.90;;;15.67;100.00;100808.22;5032299;28;20025;-81
2024/02/15 03:05:16;;;;;;;11.00;6.97;;;11.50;99.90;;;15.60;100.00;100815.78;5032769;28;20096;-82
2024/02/15 03:07:41;;;;;;;10.80;7.40;;;11.50;99.90;;;15.61;100.00;100814.69;5031647;28;20126;-81
2024/02/15 03:10:08;;;;;;;9.18;6.30;;;11.50;99.90;;;15.73;100.00;100814.63;5042441;28;20140;-81
2024/02/15 03:12:36;;;;;;;10.77;7.57;;;11.50;99.90;;;15.68;100.00;100809.03;5031762;28;20072;-81
2024/02/15 03:15:15;;;;;;;8.52;6.40;;;11.50;99.90;;;15.67;100.00;100816.47;5032632;28;20045;-81
2024/02/15 03:17:46;;;;;;;9.02;6.35;;;11.60;99.90;;;15.98;100.00;100816.19;5022758;28;20504;-80
2024/02/15 03:20:23;;;;;;;9.68;6.75;;;11.60;99.90;;;15.98;100.00;100823.63;5030795;28;20033;-81
2024/02/15 03:23:00;;;;;;;10.57;7.35;;;11.60;99.90;;;16.05;100.00;100825.16;5026798;28;20120;-81
2024/02/15 03:25:30;;;;;;;12.57;6.63;;;11.60;99.90;;;15.78;100.00;100823.00;5031749;28;20099;-80
2024/02/15 03:27:58;;;;;;;11.50;7.28;;;11.60;99.90;;;15.42;100.00;100822.31;5030606;28;20048;-81
2024/02/15 03:30:30;;;;;;;9.52;7.05;;;11.60;99.90;;;15.63;100.00;100828.22;5029998;28;20048;-81
2024/02/15 03:32:57;;;;;;;10.27;6.78;;;11.60;99.90;;;16.00;100.00;100826.97;5029421;28;20037;-80
2024/02/15 03:35:26;;;;;;;9.18;6.45;;;11.60;99.90;;;16.27;100.00;100832.63;5029265;28;20124;-80
2024/02/15 03:37:52;;;;;;;9.55;7.15;;;11.60;99.90;;;16.03;100.00;100829.22;5030302;28;20511;-80
2024/02/15 03:40:20;;;;;;;10.93;6.70;;;11.70;99.90;;;15.83;100.00;100824.97;5028431;28;20064;-81
2024/02/15 03:42:46;;;;;;;;;;;11.70;99.90;;;15.73;100.00;100827.56;5018691;28;20496;-81
2024/02/15 03:45:12;;;;;;;9.35;6.43;;;11.70;99.90;;;16.04;100.00;100836.38;5026359;28;19925;-81
2024/02/15 03:47:38;;;;;;;9.32;6.15;;;11.70;99.90;;;15.89;100.00;100829.53;5022770;28;20503;-81
2024/02/15 03:50:09;;;;;;;10.18;6.40;;;11.60;99.90;;;16.01;100.00;100831.38;5030359;28;20044;-81
2024/02/15 03:52:36;;;;;;;10.02;6.47;;;11.70;99.90;;;15.78;100.00;100831.25;5030924;28;20487;-80
2024/02/15 03:55:02;;;;;;;9.27;5.95;;;11.60;99.90;;;15.83;100.00;100836.00;5030153;28;20331;-80
2024/02/15 03:57:28;;;;;;;10.35;6.22;;;11.70;99.90;;;15.73;100.00;100833.06;5028660;28;20393;-81
2024/02/15 03:59:57;;;;;;;8.18;6.10;;;11.70;99.90;;;15.96;100.00;100837.63;5027772;28;20531;-81
2024/02/15 04:02:26;;;;;;;8.38;5.82;;;11.70;99.90;;;15.82;100.00;100834.31;5027794;28;20067;-81
2024/02/15 04:04:54;;;;;;;8.27;5.97;;;11.70;99.90;;;15.95;100.00;100839.56;5023369;28;20069;-80
2024/02/15 04:07:26;;;;;;;7.82;5.60;;;11.70;99.90;;;16.09;100.00;100847.47;5029058;28;20041;-81
2024/02/15 04:09:53;;;;;;;9.68;6.03;;;11.70;99.90;;;16.07;100.00;100847.75;5027716;28;20037;-80
2024/02/15 04:12:19;;;;;;;7.32;5.47;;;11.70;99.90;;;16.02;100.00;100839.38;5029367;28;20037;-81
2024/02/15 04:14:45;;;;;;;8.15;6.15;;;11.70;99.90;;;16.07;100.00;100842.25;5029231;28;20029;-81
2024/02/15 04:17:16;;;;;;;10.45;6.47;;;11.70;99.90;;;15.62;100.00;100837.53;5030187;28;20366;-81
2024/02/15 04:19:44;;;;;;;10.10;5.97;;;11.70;99.90;;;15.87;100.00;100844.59;5025778;28;20148;-81
2024/02/15 04:22:10;;;;;;;8.82;5.88;;;11.70;99.90;;;16.14;100.00;100843.97;5029662;28;20397;-80
2024/02/15 04:24:39;;;;;;;9.30;6.80;;;11.70;99.90;;;15.87;100.00;100841.84;5030798;28;20056;-80
2024/02/15 04:27:11;;;;;;;9.98;6.43;;;11.70;99.90;;;16.03;100.00;100851.22;5029982;28;20068;-81
2024/02/15 04:29:40;;;;;;;9.70;6.65;;;11.70;99.90;;;15.72;100.00;100845.97;4989160;28;20041;-80
2024/02/15 04:32:10;;;;;;;9.57;6.45;;;11.80;99.90;;;16.08;100.00;100852.16;5028513;28;20087;-81
2024/02/15 04:34:36;;;;;;;9.07;6.65;;;11.80;99.90;;;16.02;100.00;100855.06;5022489;28;20060;-80
2024/02/15 04:37:06;;;;;;;10.63;6.15;;;11.80;99.90;;;16.08;100.00;100846.66;5029703;28;20036;-80
2024/02/15 04:39:38;;;;;;;8.93;6.65;;;11.80;99.90;;;15.96;100.00;100849.47;5023517;28;20403;-80
2024/02/15 04:42:07;;;;;;;8.93;5.97;;;11.80;99.90;;;16.19;100.00;100849.56;5005960;28;20030;-81
2024/02/15 04:44:35;;;;;;;9.57;6.78;;;11.80;99.90;;;16.07;100.00;100850.50;5011389;28;20045;-81
2024/02/15 04:47:04;;;;;;;8.93;6.13;;;11.80;99.90;;;16.16;100.00;100866.59;5045782;28;20025;-81
2024/02/15 04:49:29;;;;;;;10.45;6.55;;;11.80;99.90;;;16.03;100.00;100853.97;5029064;28;20107;-80
2024/02/15 04:51:57;;;;;;;10.15;6.30;;;11.80;99.90;;;15.91;100.00;100852.16;5030666;28;20100;-81
2024/02/15 04:54:23;;;;;;;8.65;6.18;;;11.80;99.90;;;16.40;100.00;100842.47;5029864;28;20116;-80
2024/02/15 04:56:52;;;;;;;7.55;5.43;;;11.80;99.90;;;16.28;100.00;100850.00;5029903;28;20033;-82
2024/02/15 04:59:19;;;;;;;8.68;6.10;;;11.80;99.90;;;16.48;100.00;100847.56;5027249;28;20048;-82
2024/02/15 05:01:45;;;;;;;8.40;5.80;;;11.80;99.90;;;15.99;100.00;100848.13;5029715;28;20035;-80
2024/02/15 05:04:12;;;;;;;8.55;5.95;;;11.80;99.90;;;16.37;100.00;100852.09;5029014;28;20049;-81
2024/02/15 05:06:38;;;;;;;9.65;5.63;;;11.80;99.90;;;16.44;100.00;100843.63;5029610;28;20048;-81
2024/02/15 05:09:10;;;;;;;10.70;6.05;;;11.80;99.90;;;16.14;100.00;100852.25;5028868;28;20071;-81
2024/02/15 05:11:38;;;;;;;9.07;5.82;;;11.80;99.90;;;16.21;100.00;100853.75;5029434;28;20511;-80
2024/02/15 05:14:07;;;;;;;8.88;5.53;;;11.80;99.90;;;16.62;100.00;100860.97;5030110;28;20037;-81
2024/02/15 05:16:33;;;;;;;10.80;6.18;;;11.70;99.90;;;16.36;100.00;100855.06;5029808;28;20068;-80
2024/02/15 05:18:59;;;;;;;9.38;5.35;;;11.70;99.90;;;16.43;100.00;100850.22;5023392;28;20033;-81
2024/02/15 05:21:25;;;;;;;8.10;5.90;;;11.70;99.90;;;16.03;100.00;100853.97;5029241;28;20440;-78
2024/02/15 05:23:52;;;;;;;8.30;6.05;;;11.70;99.90;;;16.01;100.00;100847.91;5029756;28;20045;-78
2024/02/15 05:26:23;;;;;;;8.27;5.28;;;11.70;99.90;;;16.06;100.00;100856.22;5029626;28;20088;-79
2024/02/15 05:28:49;;;;;;;9.40;5.90;;;11.70;99.90;;;16.14;100.00;100855.81;5029137;28;20048;-79
2024/02/15 05:31:20;;;;;;;9.02;6.30;;;11.70;99.90;;;16.20;100.00;100851.25;5029312;28;20132;-79
2024/02/15 05:33:47;;;;;;;8.20;5.60;;;11.70;99.90;;;15.70;100.00;100845.38;5003280;28;20457;-79
2024/02/15 05:36:22;;;;;;;8.98;5.95;;;11.70;99.90;;;16.16;100.00;100859.16;5027966;28;20035;-77
2024/02/15 05:38:52;;;;;;;8.68;5.85;;;11.70;99.90;;;16.27;100.00;100859.34;5024320;28;20033;-80
2024/02/15 05:41:19;;;;;;;10.98;6.35;;;11.70;99.90;;;16.26;100.00;100850.22;5023955;28;20037;-81
2024/02/15 05:43:46;;;;;;;7.38;5.30;;;11.80;99.90;;;16.31;100.00;100832.97;5028051;28;20042;-80
2024/02/15 05:46:12;;;;;;;8.57;6.38;;;11.70;99.90;;;16.16;100.00;100837.13;5028805;28;20037;-80
2024/02/15 05:48:39;;;;;;;8.55;5.80;;;11.80;99.90;;;16.51;100.00;100844.31;5028875;28;20427;-80
2024/02/15 05:51:07;;;;;;;9.18;6.20;;;11.80;99.90;;;16.44;100.00;100840.88;5027212;28;20453;-81
2024/02/15 05:53:38;;;;;;;8.35;5.85;;;11.80;99.90;;;16.25;100.00;100854.91;4998399;28;20045;-79
2024/02/15 05:56:06;;;;;;;7.72;5.75;;;11.90;99.90;;;16.37;100.00;100848.47;5028781;28;20116;-80
2024/02/15 05:58:33;;;;;;;10.05;6.50;;;11.80;99.90;;;16.74;100.00;100850.72;4999993;28;20034;-78
2024/02/15 06:01:04;;;;;;;9.02;6.00;;;11.80;99.90;;;16.71;100.00;100848.47;5028710;28;20493;-78
2024/02/15 06:03:32;;;;;;;10.20;6.82;;;11.80;99.90;;;16.71;100.00;100851.22;5028833;28;20474;-77
2024/02/15 06:05:59;;;;;;;10.52;6.88;;;11.80;99.90;;;16.63;100.00;100851.63;5028883;28;20445;-76
2024/02/15 06:08:31;;;;;;;10.88;7.13;;;11.70;99.90;;;16.05;100.00;100852.66;5027844;28;20047;-76
2024/02/15 06:10:57;;;;;;;10.73;7.45;;;11.80;99.90;;;16.50;100.00;100853.66;5025006;28;20103;-78
2024/02/15 06:13:25;;;;;;;11.23;7.63;;;11.80;99.90;;;16.55;100.00;100852.88;5028875;28;20453;-78
2024/02/15 06:15:53;;;;;;;11.68;8.07;;;11.80;99.90;;;16.49;100.00;100853.91;5028360;28;20037;-78
2024/02/15 06:18:29;;;;;;;11.18;7.63;;;11.80;99.90;;;16.27;100.00;100851.06;5028914;28;20546;-78
2024/02/15 06:20:59;;;;;;;12.57;8.00;;;11.80;99.90;;;16.34;100.00;100846.22;5031879;28;20064;-79
2024/02/15 06:23:29;;;;;;;12.43;8.10;;;11.80;99.90;;;16.61;100.00;100859.31;5028480;28;20382;-78
2024/02/15 06:25:57;;;;;;;12.38;8.27;;;11.80;99.90;;;16.42;100.00;100856.00;5032799;28;20048;-78
2024/02/15 06:39:42;;;;;;;12.98;8.63;;;11.90;99.90;;;16.46;100.00;100855.25;5022638;28;20060;-79
2024/02/15 06:42:19;;;;;;;14.07;8.98;;;11.90;99.90;;;16.58;100.00;100859.81;5021133;28;20068;-80
2024/02/15 06:44:47;;;;;;;17.63;10.67;;;11.90;99.90;;;16.46;100.00;100865.41;5029425;28;20030;-78
2024/02/15 06:47:16;;;;;;;;;;;11.90;99.90;;;16.23;100.00;100870.00;5026518;28;20041;-80
2024/02/15 06:49:43;;;;;;;16.63;11.05;;;12.00;99.90;;;16.28;100.00;100867.31;5028497;28;19917;-80
2024/02/15 06:52:11;;;;;;;18.27;11.03;;;12.00;99.90;;;16.45;100.00;100864.59;5032063;28;20400;-82
2024/02/15 06:54:41;;;;;;;19.67;12.32;;;12.00;99.90;;;16.48;100.00;100869.59;5031816;28;20348;-81
2024/02/15 06:57:07;;;;;;;17.17;10.98;;;12.00;99.90;;;16.37;100.00;100870.50;5031462;28;20345;-81
2024/02/15 06:59:39;;;;;;;19.35;11.65;;;12.00;99.90;;;16.54;100.00;100870.50;5031966;28;20045;-81
2024/02/15 07:02:05;;;;;;;20.30;12.27;;;12.10;99.90;;;16.28;100.00;100869.25;5032341;28;20037;-80
2024/02/15 07:04:32;;;;;;;20.58;11.75;;;12.10;99.90;;;16.58;100.00;100868.09;5027387;28;20164;-80
2024/02/15 07:06:59;;;;;;;22.35;12.18;;;12.10;99.90;;;16.60;100.00;100864.00;5032389;28;20041;-81
2024/02/15 07:09:25;;;;;;;22.50;12.00;;;12.10;99.90;;;16.56;100.00;100867.50;5033415;28;20041;-80
2024/02/15 07:11:51;;;;;;;20.35;10.82;;;12.10;99.90;;;16.46;100.00;100858.00;5033532;28;20046;-80
2024/02/15 07:14:18;;;;;;;20.70;10.95;;;12.20;99.90;;;16.30;100.00;100867.91;5011662;28;20073;-79
2024/02/15 07:16:49;;;;;;;19.33;11.65;;;12.30;99.90;;;16.35;100.00;100861.66;5024578;28;20438;-81
2024/02/15 07:19:15;;;;;;;17.30;10.48;;;12.30;99.90;;;16.55;100.00;100866.66;5014841;28;20157;-80
2024/02/15 07:21:42;;;;;;;16.05;9.75;;;12.30;99.90;;;16.36;100.00;100861.44;5032288;28;20029;-79
2024/02/15 07:24:09;;;;;;;17.38;9.95;;;12.30;99.90;;;16.34;100.00;100860.00;5031273;28;20029;-81
2024/02/15 07:26:36;;;;;;;16.60;9.07;;;12.30;99.90;;;16.36;100.00;100863.31;5017146;28;20041;-82
2024/02/15 07:29:07;;;;;;;15.00;9.98;;;12.20;99.90;;;16.49;100.00;100846.47;5030489;28;20044;-81
2024/02/15 07:31:34;;;;;;;15.20;9.95;;;12.30;99.90;;;16.67;100.00;100852.78;5030840;28;20117;-80
2024/02/15 07:34:00;;;;;;;18.25;10.15;;;12.30;99.90;;;16.63;100.00;100852.47;5033646;28;20033;-82
2024/02/15 07:36:27;;;;;;;18.13;10.15;;;12.30;99.90;;;16.45;100.00;100861.00;5033228;28;20036;-82
2024/02/15 07:38:54;;;;;;;16.60;9.50;;;12.30;99.90;;;16.68;100.00;100852.53;5033145;28;20037;-82
2024/02/15 07:41:22;;;;;;;14.77;9.57;;;12.30;99.90;;;16.53;100.00;100842.13;5031163;28;20064;-82
2024/02/15 07:43:48;;;;;;;15.90;8.98;;;12.40;99.90;;;16.56;100.00;100851.78;5031667;28;20034;-82
2024/02/15 07:46:16;;;;;;;18.05;8.93;;;12.30;99.90;;;16.50;100.00;100859.16;5032353;28;20171;-82
2024/02/15 07:48:46;;;;;;;13.63;8.75;;;12.30;99.90;;;16.56;100.00;100862.00;5033172;28;20075;-82
2024/02/15 07:51:18;;;;;;;15.55;8.65;;;12.40;99.90;;;16.64;100.00;100854.16;5032763;28;20033;-82
2024/02/15 07:53:44;;;;;;;13.18;8.00;;;12.40;99.90;;;16.62;100.00;100855.47;5030414;28;20056;-81
2024/02/15 07:56:10;;;;;;;15.80;8.32;;;12.40;99.90;;;16.76;100.00;100853.19;5021609;28;20517;-81
2024/02/15 07:58:46;;;;;;;13.10;7.40;;;12.50;99.90;;;16.78;100.00;100856.53;5027645;28;20073;-81
2024/02/15 08:01:13;;;;;;;12.90;6.75;;;12.50;99.90;;;16.66;100.00;100856.63;5047609;28;20033;-82
2024/02/15 08:03:45;;;;;;;13.90;6.72;;;12.60;99.90;;;17.09;100.00;100866.09;5031725;28;20046;-80
2024/02/15 08:06:15;;;;;;;13.15;7.03;;;12.60;99.90;;;17.16;100.00;100860.41;5047444;28;20037;-82
2024/02/15 08:08:42;;;;;;;12.68;6.20;;;;;;;17.33;100.00;100863.09;5026959;28;20076;-82
2024/02/15 08:11:14;;;;;;;11.40;6.03;;;;;;;17.18;100.00;100851.84;5031494;28;20424;-82
2024/02/15 08:13:49;;;;;;;8.98;5.90;;;12.70;99.90;;;16.96;100.00;100847.13;5031901;28;20049;-81
2024/02/15 08:16:16;;;;;;;10.77;5.60;;;12.80;99.90;;;16.82;100.00;100844.75;5031693;28;20045;-81
2024/02/15 08:18:48;;;;;;;10.77;5.95;;;12.70;99.90;;;16.88;100.00;100842.06;5031727;28;20400;-82
2024/02/15 08:21:14;;;;;;;11.32;5.82;;;12.70;99.90;;;16.99;100.00;100849.44;5030482;28;20528;-82
2024/02/15 08:23:40;;;;;;;9.70;5.78;;;12.70;99.90;;;16.68;100.00;100854.44;5047188;28;20514;-81
2024/02/15 08:26:06;;;;;;;10.18;5.45;;;12.70;99.90;;;16.89;100.00;100852.84;5031603;28;20113;-82
2024/02/15 08:28:32;;;;;;;9.15;4.90;;;12.70;99.90;;;16.90;100.00;100846.25;5031306;28;20044;-81
2024/02/15 08:30:58;;;;;;;9.63;5.65;;;12.60;99.90;;;17.03;100.00;100833.19;5030516;28;20485;-81
2024/02/15 08:33:28;;;;;;;10.35;5.20;;;;;;;17.46;100.00;100858.25;5031109;28;20430;-82
2024/02/15 08:35:55;;;;;;;6.45;4.20;;;12.70;99.90;;;17.15;100.00;100844.94;5030293;28;20046;-81
2024/02/15 08:38:22;;;;;;;9.95;4.20;;;12.70;99.90;;;17.29;100.00;100847.31;5031214;28;20435;-81
2024/02/15 08:40:48;;;;;;;6.57;3.40;;;12.80;99.90;;;17.36;100.00;100851.53;5030941;28;20048;-81
2024/02/15 08:43:15;;;;;;;6.55;3.40;;;;;;;17.79;100.00;100845.38;5030429;28;20041;-82
2024/02/15 08:45:42;;;;;;;6.60;2.97;;;;;;;17.66;100.00;100847.44;5031018;28;20042;-81
2024/02/15 08:48:08;;;;;;;7.05;3.30;;;;;;;17.91;100.00;100848.81;5030377;28;20428;-80
2024/02/15 08:50:34;;;;;;;6.45;2.90;;;;;;;17.87;100.00;100842.16;4995801;28;20485;-82
2024/02/15 08:53:01;;;;;;;6.05;2.60;;;;;;;17.43;100.00;100843.06;5028838;28;20366;-81
2024/02/15 08:55:27;;;;;;;7.17;3.20;;;;;;;17.97;100.00;100849.69;5030713;28;20037;-80
2024/02/15 08:57:54;;;;;;;5.07;2.22;;;;;;;17.92;100.00;100844.94;5010843;28;20115;-82
2024/02/15 09:00:20;;;;;;;5.82;2.30;;;;;;;18.04;100.00;100847.56;5030438;28;20041;-82
2024/02/15 09:02:47;;;;;;;6.30;2.00;;;;;;;17.70;100.00;100842.25;5030269;28;20034;-82
2024/02/15 09:05:14;;;;;;;5.13;1.98;;;;;;;18.04;100.00;100847.56;5031160;28;20033;-81
2024/02/15 09:07:42;;;;;;;4.80;2.05;;;;;;;18.00;100.00;100851.94;5011430;28;20045;-81
2024/02/15 09:10:10;;;;;;;6.22;2.22;;;;;;;18.03;100.00;100848.66;5030076;28;20033;-82
2024/02/15 09:12:39;;;;;;;3.92;1.67;;;;;;;17.71;100.00;100837.56;5006558;28;20042;-80
2024/02/15 09:15:10;;;;;;;4.18;1.65;;;;;;;18.10;100.00;100848.47;5030019;28;20137;-80
2024/02/15 09:17:38;;;;;;;3.72;1.52;;;;;;;18.06;100.00;100845.38;5033520;28;22151;-81
2024/02/15 09:20:14;;;;;;;3.47;1.52;;;;;;;18.26;100.00;100836.44;5031737;28;20731;-80
2024/02/15 09:22:54;;;;;;;2.53;1.50;;;;;;;18.39;100.00;100839.84;5030640;28;20042;-80
2024/02/15 09:25:24;;;;;;;4.22;1.77;;;;;;;18.28;100.00;100827.88;5029832;28;20045;-80
2024/02/15 09:27:51;;;;;;;2.63;1.55;;;;;;;18.15;100.00;100840.22;5045842;28;20041;-81
2024/02/15 09:30:18;;;;;;;2.80;1.50;;;;;;;17.83;100.00;100841.00;5030049;28;20044;-81
2024/02/15 09:32:45;;;;;;;4.07;1.40;;;;;;;18.20;100.00;100831.16;4998566;28;20547;-81
2024/02/15 09:35:12;;;;;;;4.43;1.33;;;;;;;17.97;100.00;100836.72;5029931;28;20033;-80
2024/02/15 09:37:43;;;;;;;4.47;1.50;;;;;;;17.93;100.00;100832.00;5025994;28;20079;-80
2024/02/15 09:40:11;;;;;;;4.25;1.50;;;;;;;17.74;100.00;100828.75;5029864;28;21258;-81
2024/02/15 09:42:39;;;;;;;3.78;1.42;;;;;;;18.01;100.00;100836.19;5002679;28;20041;-80
2024/02/15 09:45:06;;;;;;;;;;;;;;;17.66;100.00;100828.13;5029333;28;20045;-81
2024/02/15 09:47:40;;;;;;;1.98;1.13;;;;;;;17.91;100.00;100832.25;5025764;28;20296;-80
2024/02/15 09:50:08;;;;;;;3.53;1.55;;;;;;;17.85;100.00;100833.28;5023530;28;20044;-79
2024/02/15 09:52:37;;;;;;;2.97;1.65;;;;;;;18.03;100.00;100831.25;5028818;28;20026;-80
2024/02/15 09:55:04;;;;;;;4.00;1.40;;;;;;;18.01;100.00;100836.19;5030056;28;20466;-81
2024/02/15 09:57:35;;;;;;;3.27;1.23;;;;;;;17.77;100.00;100829.06;4998833;28;20095;-82
2024/02/15 10:00:03;;;;;;;2.55;1.27;;;;;;;17.66;100.00;100830.09;5030371;28;20033;-83
2024/02/15 10:02:31;;;;;;;3.50;1.55;;;;;;;17.81;100.00;100832.97;5032405;28;20051;-80
2024/02/15 10:04:58;;;;;;;4.73;1.60;;;;;;;17.47;100.00;100835.94;5029410;28;20033;-80
2024/02/15 10:07:26;;;;;;;2.50;1.30;;;;;;;17.46;100.00;100833.44;5031520;28;20080;-80
2024/02/15 10:09:53;;;;;;;;;;;12.90;99.90;;;17.30;100.00;100840.69;5014178;28;20496;-79
2024/02/15 10:12:20;;;;;;;3.70;1.48;;;13.80;99.90;;;17.14;100.00;100837.78;5032505;28;19924;-79
2024/02/15 10:14:51;;;;;;;3.30;1.40;;;13.70;99.90;;;16.93;100.00;100845.72;5033370;28;20045;-79
2024/02/15 10:17:19;;;;;;;3.47;1.50;;;13.60;99.90;;;16.97;100.00;100855.16;5033329;28;20056;-79
2024/02/15 10:20:03;;;;;;;4.25;1.50;;;13.50;99.90;;;17.24;100.00;100850.84;5031258;28;20131;-79
2024/02/15 10:22:28;;;;;;;3.38;1.58;;;13.50;99.90;;;17.31;100.00;100851.47;5031695;28;20041;-80
2024/02/15 10:25:12;;;;;;;2.25;1.50;;;13.50;99.90;;;17.30;100.00;100849.81;5033299;28;20038;-80
2024/02/15 10:27:42;;;;;;;2.88;1.40;;;13.50;99.90;;;16.99;100.00;100848.59;5048669;28;20041;-80